createdAt,value
2019-01-29T00:01:03.136Z,8.50
2019-01-29T00:03:31.866Z,8.40
2019-01-29T00:06:00.671Z,8.73
2019-01-29T00:08:29.438Z,5.97
2019-01-29T00:10:58.221Z,4.25
2019-01-29T00:13:27.013Z,6.05
2019-01-29T00:15:55.767Z,5.20
2019-01-29T00:18:24.565Z,6.97
2019-01-29T00:20:53.373Z,6.57
2019-01-29T00:23:22.356Z,5.27
2019-01-29T00:25:51.480Z,6.42
2019-01-29T00:28:20.457Z,6.03
2019-01-29T00:30:49.492Z,8.33
2019-01-29T00:33:18.247Z,5.65
2019-01-29T00:35:47.995Z,7.12
2019-01-29T00:38:17.081Z,8.33
2019-01-29T00:40:45.911Z,6.07
2019-01-29T00:43:14.688Z,7.97
2019-01-29T00:45:43.505Z,8.10
2019-01-29T00:48:12.430Z,5.65
2019-01-29T00:50:41.257Z,5.45
2019-01-29T00:53:09.985Z,6.92
2019-01-29T00:55:39.113Z,6.35
2019-01-29T00:58:08.237Z,7.28
2019-01-29T01:00:37.020Z,8.53
2019-01-29T01:03:05.960Z,7.03
2019-01-29T01:05:34.789Z,7.03
2019-01-29T01:08:04.070Z,7.70
2019-01-29T01:10:32.974Z,8.75
2019-01-29T01:13:01.705Z,7.62
2019-01-29T01:15:30.521Z,8.33
2019-01-29T01:17:59.246Z,9.00
2019-01-29T01:20:28.056Z,8.45
2019-01-29T01:22:56.803Z,10.25
2019-01-29T01:25:25.546Z,9.45
2019-01-29T01:27:54.265Z,8.50
2019-01-29T01:30:23.086Z,8.48
2019-01-29T01:32:51.833Z,9.20
2019-01-29T01:35:20.563Z,9.70
2019-01-29T01:37:49.426Z,8.73
2019-01-29T01:40:20.744Z,9.73
2019-01-29T01:42:49.690Z,10.73
2019-01-29T01:45:18.953Z,10.17
2019-01-29T01:47:48.117Z,9.40
2019-01-29T01:50:17.408Z,9.13
2019-01-29T01:52:46.232Z,8.88
2019-01-29T01:55:17.043Z,9.55
2019-01-29T01:57:46.228Z,8.33
2019-01-29T02:00:17.193Z,10.60
2019-01-29T02:02:46.001Z,8.98
2019-01-29T02:05:14.911Z,10.13
2019-01-29T02:07:44.228Z,10.98
2019-01-29T02:10:18.778Z,11.03
2019-01-29T02:12:47.534Z,9.73
2019-01-29T02:15:16.428Z,8.30
2019-01-29T02:17:45.280Z,8.50
2019-01-29T02:20:14.312Z,7.75
2019-01-29T02:22:43.073Z,9.30
2019-01-29T02:25:11.936Z,7.53
2019-01-29T02:27:40.689Z,8.95
2019-01-29T02:30:12.897Z,8.28
2019-01-29T02:32:41.777Z,8.00
2019-01-29T02:35:10.731Z,6.87
2019-01-29T02:37:39.640Z,8.88
2019-01-29T02:40:11.703Z,8.87
2019-01-29T02:42:40.713Z,6.83
2019-01-29T02:45:10.842Z,7.10
2019-01-29T02:47:39.996Z,8.63
2019-01-29T02:50:09.748Z,7.45
2019-01-29T02:52:38.495Z,7.62
2019-01-29T02:55:08.450Z,7.62
2019-01-29T02:57:37.543Z,7.75
2019-01-29T03:00:10.380Z,7.95
2019-01-29T03:02:39.434Z,7.83
2019-01-29T03:05:09.308Z,7.75
2019-01-29T03:07:38.279Z,8.70
2019-01-29T03:10:09.257Z,8.25
2019-01-29T03:12:38.522Z,10.18
2019-01-29T03:15:09.692Z,9.15
2019-01-29T03:17:38.860Z,8.70
2019-01-29T03:20:08.865Z,8.43
2019-01-29T03:22:38.172Z,8.77
2019-01-29T03:25:08.121Z,7.37
2019-01-29T03:27:37.210Z,7.92
2019-01-29T03:30:07.147Z,7.05
2019-01-29T03:32:35.921Z,9.33
2019-01-29T03:35:05.830Z,7.67
2019-01-29T03:37:34.812Z,7.27
2019-01-29T03:40:05.236Z,9.85
2019-01-29T03:42:34.017Z,8.23
2019-01-29T03:45:02.835Z,8.68
2019-01-29T03:47:31.791Z,9.58
2019-01-29T03:50:00.637Z,8.70
2019-01-29T03:52:29.668Z,9.10
2019-01-29T03:54:58.414Z,10.48
2019-01-29T03:57:27.291Z,8.83
2019-01-29T04:00:19.609Z,10.08
2019-01-29T04:02:48.550Z,8.18
2019-01-29T04:05:17.527Z,9.73
2019-01-29T04:07:46.703Z,9.68
2019-01-29T04:10:16.648Z,9.63
2019-01-29T04:12:45.889Z,8.35
2019-01-29T04:15:17.007Z,10.20
2019-01-29T04:17:46.037Z,10.38
2019-01-29T04:20:17.335Z,8.68
2019-01-29T04:22:46.466Z,8.90
2019-01-29T04:25:15.666Z,10.23
2019-01-29T04:27:44.492Z,9.45
2019-01-29T04:30:15.654Z,9.20
2019-01-29T04:32:44.544Z,8.68
2019-01-29T04:35:13.352Z,7.47
2019-01-29T04:37:42.202Z,10.28
2019-01-29T04:40:12.401Z,9.63
2019-01-29T04:42:41.265Z,8.45
2019-01-29T04:45:11.510Z,10.63
2019-01-29T04:47:40.421Z,8.93
2019-01-29T04:50:11.152Z,10.53
2019-01-29T04:52:40.404Z,13.10
2019-01-29T04:55:10.455Z,13.65
2019-01-29T04:57:39.634Z,14.15
2019-01-29T05:00:12.221Z,15.90
2019-01-29T05:02:41.154Z,18.15
2019-01-29T05:05:11.056Z,18.97
2019-01-29T05:07:40.236Z,17.77
2019-01-29T05:10:10.624Z,14.23
2019-01-29T05:12:39.388Z,9.28
2019-01-29T05:15:10.384Z,10.78
2019-01-29T05:17:39.268Z,11.73
2019-01-29T05:20:10.276Z,10.03
2019-01-29T05:22:39.022Z,12.03
2019-01-29T05:25:07.944Z,11.00
2019-01-29T05:27:36.704Z,11.35
2019-01-29T05:30:08.334Z,11.68
2019-01-29T05:32:37.145Z,10.53
2019-01-29T05:35:07.108Z,11.63
2019-01-29T05:37:35.862Z,12.35
2019-01-29T05:40:05.747Z,11.90
2019-01-29T05:42:34.918Z,13.60
2019-01-29T05:45:03.880Z,12.90
2019-01-29T05:47:32.998Z,10.78
2019-01-29T05:50:01.863Z,11.85
2019-01-29T05:52:30.604Z,11.45
2019-01-29T05:54:59.388Z,9.53
2019-01-29T05:57:28.155Z,11.55
2019-01-29T05:59:56.913Z,9.15
2019-01-29T06:02:25.820Z,13.43
2019-01-29T06:04:54.597Z,9.83
2019-01-29T06:07:23.335Z,9.70
2019-01-29T06:09:52.389Z,8.78
2019-01-29T06:12:21.363Z,9.55
2019-01-29T06:14:50.471Z,10.45
2019-01-29T06:17:27.371Z,9.43
2019-01-29T06:19:50.035Z,10.25
2019-01-29T06:22:18.817Z,10.80
2019-01-29T06:24:47.661Z,9.98
2019-01-29T06:27:16.661Z,12.63
2019-01-29T06:29:45.500Z,10.37
2019-01-29T06:32:14.649Z,10.33
2019-01-29T06:34:43.483Z,11.53
2019-01-29T06:37:12.553Z,10.35
2019-01-29T06:39:41.313Z,11.53
2019-01-29T06:42:10.236Z,11.05
2019-01-29T06:44:39.063Z,10.80
2019-01-29T06:47:07.859Z,10.70
2019-01-29T06:49:36.716Z,11.27
2019-01-29T06:52:05.744Z,12.97
2019-01-29T06:54:34.750Z,12.33
2019-01-29T06:57:03.519Z,13.10
2019-01-29T06:59:32.297Z,16.97
2019-01-29T07:02:01.138Z,11.88
2019-01-29T07:04:30.000Z,10.78
2019-01-29T07:06:59.161Z,10.80
2019-01-29T07:09:27.995Z,10.08
2019-01-29T07:12:03.306Z,11.83
2019-01-29T07:14:32.316Z,13.03
2019-01-29T07:17:13.713Z,12.20
2019-01-29T07:19:48.553Z,13.25
2019-01-29T07:22:17.341Z,12.73
2019-01-29T07:24:46.535Z,13.35
2019-01-29T07:27:15.644Z,17.57
2019-01-29T07:29:44.402Z,16.42
2019-01-29T07:32:13.254Z,22.00
2019-01-29T07:34:42.158Z,18.25
2019-01-29T07:37:10.967Z,17.90
2019-01-29T07:39:39.768Z,17.35
2019-01-29T07:42:08.870Z,16.32
2019-01-29T07:44:37.698Z,17.73
2019-01-29T07:47:06.607Z,16.23
2019-01-29T07:49:35.593Z,16.30
2019-01-29T07:52:04.841Z,18.60
2019-01-29T07:54:33.797Z,17.70
2019-01-29T07:57:02.552Z,15.63
2019-01-29T07:59:33.079Z,15.60
2019-01-29T08:02:02.095Z,15.77
2019-01-29T08:04:30.919Z,17.27
2019-01-29T08:06:59.737Z,18.40
2019-01-29T08:09:28.561Z,17.23
2019-01-29T08:11:57.370Z,17.50
2019-01-29T08:14:26.233Z,17.32
2019-01-29T08:16:54.972Z,20.75
2019-01-29T08:19:23.742Z,19.05
2019-01-29T08:21:52.910Z,20.65
2019-01-29T08:24:21.764Z,17.82
2019-01-29T08:26:50.639Z,16.85
2019-01-29T08:29:19.485Z,16.95
2019-01-29T08:31:48.553Z,16.62
2019-01-29T08:34:17.426Z,16.73
2019-01-29T08:36:46.247Z,14.70
2019-01-29T08:39:15.068Z,17.00
2019-01-29T08:41:43.818Z,15.35
2019-01-29T08:44:12.568Z,18.05
2019-01-29T08:46:41.844Z,18.77
2019-01-29T08:49:10.772Z,16.45
2019-01-29T08:51:39.506Z,16.27
2019-01-29T08:54:08.335Z,20.12
2019-01-29T08:56:37.164Z,16.67
2019-01-29T08:59:06.421Z,17.23
2019-01-29T09:01:35.536Z,17.27
2019-01-29T09:04:04.553Z,16.85
2019-01-29T09:06:33.324Z,16.93
2019-01-29T09:09:02.411Z,16.60
2019-01-29T09:11:31.211Z,17.10
2019-01-29T09:14:00.418Z,18.85
2019-01-29T09:16:29.168Z,15.53
2019-01-29T09:18:57.928Z,20.62
2019-01-29T09:21:26.704Z,18.23
2019-01-29T09:23:55.929Z,17.02
2019-01-29T09:26:25.041Z,17.15
2019-01-29T09:28:53.799Z,19.80
2019-01-29T09:31:22.608Z,16.90
2019-01-29T09:33:51.473Z,20.00
2019-01-29T09:36:20.244Z,19.37
2019-01-29T09:38:49.219Z,21.95
2019-01-29T09:41:17.955Z,19.10
2019-01-29T09:43:46.804Z,16.42
2019-01-29T09:46:15.861Z,17.33
2019-01-29T09:48:45.553Z,18.85
2019-01-29T09:51:14.625Z,20.08
2019-01-29T09:53:43.712Z,18.17
2019-01-29T09:56:13.019Z,18.02
2019-01-29T09:58:42.224Z,17.05
2019-01-29T10:01:11.068Z,19.10
2019-01-29T10:03:40.095Z,19.48
2019-01-29T10:06:09.500Z,18.92
2019-01-29T10:08:38.485Z,20.25
2019-01-29T10:11:07.627Z,18.42
2019-01-29T10:13:36.658Z,19.05
2019-01-29T10:16:05.512Z,17.87
2019-01-29T10:18:34.271Z,18.43
2019-01-29T10:21:03.147Z,18.17
2019-01-29T10:23:31.994Z,20.00
2019-01-29T10:26:00.756Z,17.67
2019-01-29T10:28:29.515Z,20.75
2019-01-29T10:30:58.613Z,20.27
2019-01-29T10:33:27.366Z,20.90
2019-01-29T10:35:56.317Z,20.95
2019-01-29T10:38:25.087Z,23.00
2019-01-29T10:40:53.930Z,22.63
2019-01-29T10:43:22.700Z,19.30
2019-01-29T10:45:51.543Z,21.87
2019-01-29T10:48:20.449Z,21.45
2019-01-29T10:50:49.450Z,19.60
2019-01-29T10:53:18.192Z,21.90
2019-01-29T10:55:47.762Z,20.80
2019-01-29T10:58:16.652Z,20.43
2019-01-29T11:00:46.104Z,19.73
2019-01-29T11:03:15.084Z,18.75
2019-01-29T11:05:43.867Z,20.15
2019-01-29T11:08:13.085Z,18.92
2019-01-29T11:10:42.387Z,19.02
2019-01-29T11:13:11.146Z,21.57
2019-01-29T11:15:41.727Z,21.77
2019-01-29T11:18:13.404Z,22.77
2019-01-29T11:20:42.407Z,22.10
2019-01-29T11:23:11.239Z,23.42
2019-01-29T11:25:40.310Z,21.62
2019-01-29T11:28:09.220Z,21.73
2019-01-29T11:30:38.175Z,21.15
2019-01-29T11:33:07.680Z,21.60
2019-01-29T11:35:36.620Z,23.00
2019-01-29T11:38:05.539Z,21.62
2019-01-29T11:40:35.207Z,20.20
2019-01-29T11:43:05.212Z,21.40
2019-01-29T11:45:39.858Z,21.15
2019-01-29T11:48:09.068Z,20.92
2019-01-29T11:50:37.970Z,22.67
2019-01-29T11:53:07.188Z,22.00
2019-01-29T11:55:36.332Z,21.90
2019-01-29T11:58:05.790Z,19.07
2019-01-29T12:00:38.240Z,23.70
2019-01-29T12:03:07.224Z,21.20
2019-01-29T12:05:36.130Z,21.12
2019-01-29T12:08:06.036Z,21.77
2019-01-29T12:10:34.877Z,22.55
2019-01-29T12:13:04.180Z,20.30
2019-01-29T12:15:33.325Z,19.73
2019-01-29T12:18:03.247Z,19.03
2019-01-29T12:20:32.157Z,20.63
2019-01-29T12:23:01.067Z,19.80
2019-01-29T12:25:29.936Z,20.73
2019-01-29T12:27:59.401Z,20.63
2019-01-29T12:30:28.691Z,20.60
2019-01-29T12:32:58.166Z,20.33
2019-01-29T12:35:29.728Z,19.30
2019-01-29T12:37:58.775Z,19.37
2019-01-29T12:40:27.592Z,18.77
2019-01-29T12:42:56.429Z,22.05
2019-01-29T12:45:25.701Z,21.55
2019-01-29T12:47:54.807Z,23.55
2019-01-29T12:50:24.461Z,19.07
2019-01-29T12:53:12.321Z,22.22
2019-01-29T12:55:41.270Z,17.98
2019-01-29T12:58:10.124Z,17.90
2019-01-29T13:00:52.067Z,19.35
2019-01-29T13:03:21.864Z,19.25
2019-01-29T13:05:50.612Z,18.30
2019-01-29T13:08:19.568Z,20.60
2019-01-29T13:10:48.477Z,20.72
2019-01-29T13:13:17.472Z,19.45
2019-01-29T13:15:46.368Z,20.57
2019-01-29T13:18:15.309Z,20.50
2019-01-29T13:20:44.270Z,22.67
2019-01-29T13:23:13.252Z,17.48
2019-01-29T13:25:42.430Z,18.05
2019-01-29T13:28:11.286Z,18.40
2019-01-29T13:30:40.128Z,18.50
2019-01-29T13:33:14.191Z,20.20
2019-01-29T13:35:43.541Z,19.43
2019-01-29T13:38:12.588Z,23.25
2019-01-29T13:40:41.790Z,19.45
2019-01-29T13:43:10.720Z,19.07
2019-01-29T13:45:40.675Z,18.07
2019-01-29T13:48:09.519Z,20.40
2019-01-29T13:50:51.557Z,19.17
2019-01-29T13:53:20.326Z,19.27
2019-01-29T13:55:49.178Z,22.45
2019-01-29T13:58:18.073Z,19.07
2019-01-29T14:00:47.159Z,18.12
2019-01-29T14:03:15.988Z,15.67
2019-01-29T14:05:44.828Z,15.95
2019-01-29T14:08:14.384Z,14.70
2019-01-29T14:10:43.206Z,14.50
2019-01-29T14:13:12.448Z,14.25
2019-01-29T14:15:46.664Z,14.00
2019-01-29T14:18:16.221Z,12.13
2019-01-29T14:20:45.124Z,14.53
2019-01-29T14:23:13.880Z,15.28
2019-01-29T14:25:42.978Z,14.70
2019-01-29T14:28:12.250Z,15.25
2019-01-29T14:30:41.040Z,13.55
2019-01-29T14:33:09.986Z,12.80
2019-01-29T14:36:54.977Z,15.58
2019-01-29T14:39:42.176Z,13.65
2019-01-29T14:42:10.957Z,15.28
2019-01-29T14:44:43.957Z,13.05
2019-01-29T14:47:13.286Z,12.93
2019-01-29T14:49:42.334Z,13.50
2019-01-29T14:52:11.155Z,12.23
2019-01-29T14:54:40.287Z,11.88
2019-01-29T14:57:09.129Z,11.05
2019-01-29T14:59:38.026Z,7.92
2019-01-29T15:02:06.855Z,9.08
2019-01-29T15:04:35.599Z,8.75
2019-01-29T15:07:04.617Z,8.38
2019-01-29T15:09:33.592Z,8.23
2019-01-29T15:12:02.717Z,8.00
2019-01-29T15:14:31.523Z,8.40
2019-01-29T15:17:18.404Z,6.58
2019-01-29T15:19:47.232Z,8.30
2019-01-29T15:22:16.085Z,9.25
2019-01-29T15:24:45.167Z,9.83
2019-01-29T15:27:14.023Z,9.45
2019-01-29T15:29:43.002Z,9.98
2019-01-29T15:32:11.943Z,14.58
2019-01-29T15:34:41.041Z,13.58
2019-01-29T15:37:09.800Z,11.95
2019-01-29T15:39:38.641Z,12.70
2019-01-29T15:42:07.541Z,13.33
2019-01-29T15:44:36.418Z,11.10
2019-01-29T15:47:05.307Z,12.98
2019-01-29T15:49:34.703Z,11.18
2019-01-29T15:52:03.532Z,10.20
2019-01-29T15:54:32.302Z,10.18
2019-01-29T15:57:01.262Z,10.13
2019-01-29T15:59:31.030Z,11.30
2019-01-29T16:01:59.827Z,10.65
2019-01-29T16:04:28.576Z,12.50
2019-01-29T16:06:57.315Z,12.05
2019-01-29T16:09:26.305Z,12.98
2019-01-29T16:11:55.392Z,11.10
2019-01-29T16:14:24.125Z,14.07
2019-01-29T16:16:52.938Z,13.60
2019-01-29T16:19:21.799Z,16.52
2019-01-29T16:21:51.388Z,16.35
2019-01-29T16:24:20.683Z,14.98
2019-01-29T16:26:49.775Z,16.90
2019-01-29T16:29:18.669Z,14.95
2019-01-29T16:31:47.487Z,16.42
2019-01-29T16:34:16.251Z,18.12
2019-01-29T16:36:45.143Z,16.90
2019-01-29T16:39:13.890Z,18.82
2019-01-29T16:41:42.674Z,20.60
2019-01-29T16:44:11.569Z,19.12
2019-01-29T16:46:40.864Z,21.02
2019-01-29T16:49:09.863Z,18.20
2019-01-29T16:51:42.209Z,19.62
2019-01-29T16:54:09.644Z,17.57
2019-01-29T16:56:38.808Z,18.77
2019-01-29T16:59:08.024Z,18.02
2019-01-29T17:01:37.624Z,16.65
2019-01-29T17:04:06.460Z,16.65
2019-01-29T17:06:35.417Z,15.80
2019-01-29T17:09:07.812Z,16.35
2019-01-29T17:11:36.692Z,16.20
2019-01-29T17:14:05.862Z,16.75
2019-01-29T17:16:34.841Z,17.95
2019-01-29T17:19:04.610Z,21.23
2019-01-29T17:21:33.678Z,20.25
2019-01-29T17:24:02.836Z,19.80
2019-01-29T17:26:31.992Z,17.52
2019-01-29T17:29:01.358Z,18.48
2019-01-29T17:31:30.136Z,16.65
2019-01-29T17:34:00.213Z,17.15
2019-01-29T17:36:29.028Z,18.35
2019-01-29T17:38:57.772Z,20.08
2019-01-29T17:41:26.947Z,23.18
2019-01-29T17:43:56.216Z,31.97
2019-01-29T17:46:25.596Z,20.55
2019-01-29T17:48:54.683Z,20.63
2019-01-29T17:51:23.807Z,22.40
2019-01-29T17:53:52.727Z,24.98
2019-01-29T17:56:21.499Z,44.10
2019-01-29T17:58:50.404Z,51.02
2019-01-29T18:01:19.472Z,51.63
2019-01-29T18:03:48.569Z,27.52
2019-01-29T18:06:17.763Z,28.87
2019-01-29T18:08:49.847Z,26.52
2019-01-29T18:11:17.592Z,25.70
2019-01-29T18:13:47.134Z,24.20
2019-01-29T18:16:16.609Z,23.05
2019-01-29T18:18:45.433Z,21.77
2019-01-29T18:21:14.284Z,19.87
2019-01-29T18:23:43.359Z,22.50
2019-01-29T18:26:14.532Z,23.83
2019-01-29T18:28:43.689Z,22.93
2019-01-29T18:31:12.653Z,21.90
2019-01-29T18:33:41.538Z,21.70
2019-01-29T18:36:11.120Z,23.38
2019-01-29T18:38:40.821Z,23.10
2019-01-29T18:41:09.697Z,22.05
2019-01-29T18:43:38.863Z,20.95
2019-01-29T18:46:07.962Z,20.25
2019-01-29T18:48:43.906Z,20.72
2019-01-29T18:51:13.116Z,19.37
2019-01-29T18:53:44.789Z,22.07
2019-01-29T18:56:13.530Z,26.43
2019-01-29T18:58:42.510Z,25.65
2019-01-29T19:01:12.193Z,21.60
2019-01-29T19:03:41.115Z,22.73
2019-01-29T19:06:10.079Z,18.87
2019-01-29T19:08:39.172Z,21.35
2019-01-29T19:11:08.004Z,19.85
2019-01-29T19:13:36.945Z,20.62
2019-01-29T19:16:05.776Z,21.45
2019-01-29T19:18:34.636Z,19.27
2019-01-29T19:21:03.472Z,21.12
2019-01-29T19:23:32.369Z,25.02
2019-01-29T19:26:01.607Z,19.20
2019-01-29T19:28:30.860Z,20.50
2019-01-29T19:31:00.484Z,24.12
2019-01-29T19:33:29.867Z,23.55
2019-01-29T19:35:58.916Z,20.10
2019-01-29T19:38:27.675Z,20.02
2019-01-29T19:40:56.543Z,22.93
2019-01-29T19:43:25.442Z,22.45
2019-01-29T19:45:54.270Z,22.22
2019-01-29T19:48:23.353Z,19.75
2019-01-29T19:50:52.509Z,20.10
2019-01-29T19:53:21.750Z,22.48
2019-01-29T19:55:50.907Z,20.65
2019-01-29T19:58:19.807Z,19.40
2019-01-29T20:00:48.737Z,19.73
2019-01-29T20:03:18.242Z,21.75
2019-01-29T20:05:47.160Z,19.63
2019-01-29T20:08:16.030Z,18.70
2019-01-29T20:10:45.630Z,20.05
2019-01-29T20:13:15.175Z,18.93
2019-01-29T20:15:44.525Z,20.65
2019-01-29T20:18:13.353Z,19.82
2019-01-29T20:20:42.500Z,22.27
2019-01-29T20:23:11.551Z,23.47
2019-01-29T20:25:40.459Z,22.02
2019-01-29T20:28:09.550Z,19.85
2019-01-29T20:30:39.566Z,22.58
2019-01-29T20:33:08.729Z,20.40
2019-01-29T20:35:37.765Z,20.57
2019-01-29T20:38:06.914Z,21.70
2019-01-29T20:40:35.860Z,20.40
2019-01-29T20:43:04.880Z,20.17
2019-01-29T20:45:34.168Z,20.70
2019-01-29T20:48:03.274Z,19.67
2019-01-29T20:50:34.235Z,19.52
2019-01-29T20:53:03.535Z,21.23
2019-01-29T20:55:32.583Z,18.85
2019-01-29T20:58:01.506Z,20.35
2019-01-29T21:00:32.715Z,22.15
2019-01-29T21:03:01.854Z,21.52
2019-01-29T21:05:30.800Z,23.27
2019-01-29T21:08:00.571Z,19.37
2019-01-29T21:10:29.640Z,21.42
2019-01-29T21:12:58.920Z,25.32
2019-01-29T21:15:37.581Z,21.57
2019-01-29T21:17:58.527Z,20.75
2019-01-29T21:20:29.044Z,21.73
2019-01-29T21:22:58.312Z,21.00
2019-01-29T21:25:27.480Z,20.30
2019-01-29T21:27:56.521Z,20.72
2019-01-29T21:30:33.977Z,21.30
2019-01-29T21:33:02.977Z,19.67
2019-01-29T21:35:31.968Z,20.13
2019-01-29T21:38:01.160Z,19.52
2019-01-29T21:40:30.390Z,19.87
2019-01-29T21:42:59.170Z,19.67
2019-01-29T21:45:28.191Z,19.75
2019-01-29T21:47:58.750Z,19.80
2019-01-29T21:50:29.592Z,20.37
2019-01-29T21:52:58.427Z,20.97
2019-01-29T21:55:27.980Z,18.98
2019-01-29T21:57:57.532Z,18.92
2019-01-29T22:00:29.071Z,19.50
2019-01-29T22:02:57.887Z,20.72
2019-01-29T22:05:27.145Z,19.87
2019-01-29T22:07:57.685Z,17.42
2019-01-29T22:10:27.221Z,18.80
2019-01-29T22:12:56.055Z,21.20
2019-01-29T22:15:25.437Z,17.10
2019-01-29T22:17:54.289Z,18.95
2019-01-29T22:20:23.239Z,17.52
2019-01-29T22:22:52.665Z,19.10
2019-01-29T22:25:22.248Z,16.90
2019-01-29T22:27:51.513Z,19.92
2019-01-29T22:30:26.053Z,18.27
2019-01-29T22:32:54.885Z,18.85
2019-01-29T22:35:23.829Z,18.02
2019-01-29T22:37:53.058Z,17.82
2019-01-29T22:40:23.774Z,19.02
2019-01-29T22:42:53.472Z,19.57
2019-01-29T22:45:22.516Z,18.80
2019-01-29T22:47:51.379Z,17.32
2019-01-29T22:50:31.528Z,19.02
2019-01-29T22:53:00.917Z,17.05
2019-01-29T22:55:30.112Z,16.07
2019-01-29T22:57:59.318Z,15.93
2019-01-29T23:00:52.940Z,15.93
2019-01-29T23:03:24.408Z,16.33
2019-01-29T23:05:57.788Z,14.35
2019-01-29T23:08:26.927Z,17.02
2019-01-29T23:10:57.345Z,16.62
2019-01-29T23:13:26.249Z,14.65
2019-01-29T23:15:55.155Z,15.35
2019-01-29T23:18:24.004Z,15.55
2019-01-29T23:20:52.770Z,15.13
2019-01-29T23:23:22.282Z,17.25
2019-01-29T23:25:51.131Z,15.88
2019-01-29T23:28:19.942Z,14.28
2019-01-29T23:30:48.774Z,14.30
2019-01-29T23:33:17.978Z,14.63
2019-01-29T23:35:47.168Z,15.05
2019-01-29T23:38:15.952Z,13.35
2019-01-29T23:40:44.728Z,14.75
2019-01-29T23:43:13.531Z,16.33
2019-01-29T23:45:42.315Z,14.83
2019-01-29T23:48:11.411Z,14.20
2019-01-29T23:50:40.185Z,13.98
2019-01-29T23:53:09.181Z,16.35
2019-01-29T23:55:37.979Z,14.15
2019-01-29T23:58:06.918Z,13.68
